createdAt,value
2023-04-01T00:03:09.335Z,21.5
2023-04-01T00:08:11.761Z,21.5
2023-04-01T00:13:11.609Z,21.5
2023-04-01T00:18:14.547Z,21.5
2023-04-01T00:23:14.482Z,21.5
2023-04-01T00:28:14.944Z,21.5
2023-04-01T00:33:15.127Z,21.5
2023-04-01T00:38:15.574Z,21.5
2023-04-01T00:43:18.796Z,21.4
2023-04-01T00:48:18.319Z,21.4
2023-04-01T00:53:21.121Z,21.4
2023-04-01T00:58:23.960Z,21.4
2023-04-01T01:03:26.702Z,21.4
2023-04-01T01:08:29.393Z,21.4
2023-04-01T01:13:29.177Z,21.4
2023-04-01T01:18:29.431Z,21.4
2023-04-01T01:23:29.849Z,21.4
2023-04-01T01:28:32.939Z,21.4
2023-04-01T01:33:35.610Z,21.4
2023-04-01T01:38:38.164Z,21.4
2023-04-01T01:43:40.740Z,21.4
2023-04-01T01:48:43.380Z,21.4
2023-04-01T01:53:43.343Z,21.4
2023-04-01T01:58:46.349Z,21.4
2023-04-01T02:03:46.099Z,21.4
2023-04-01T02:08:46.547Z,21.4
2023-04-01T02:13:49.677Z,21.4
2023-04-01T02:18:49.357Z,21.3
2023-04-01T02:23:49.838Z,21.3
2023-04-01T02:28:53.134Z,21.3
2023-04-01T02:33:55.557Z,21.3
2023-04-01T02:38:55.353Z,21.3
2023-04-01T02:43:58.428Z,21.3
2023-04-01T02:49:01.219Z,21.3
2023-04-01T02:54:01.242Z,21.3
2023-04-01T02:59:01.625Z,21.3
2023-04-01T03:04:01.836Z,21.3
2023-04-01T03:09:02.076Z,21.3
2023-04-01T03:14:05.021Z,21.3
2023-04-01T03:19:07.764Z,21.3
2023-04-01T03:24:07.867Z,21.3
2023-04-01T03:29:10.765Z,21.3
2023-04-01T03:34:10.797Z,21.3
2023-04-01T03:39:10.967Z,21.3
2023-04-01T03:44:14.154Z,21.3
2023-04-01T03:49:17.046Z,21.3
2023-04-01T03:54:16.863Z,21.3
2023-04-01T03:59:17.300Z,21.3
2023-04-01T04:04:20.713Z,21.3
2023-04-01T04:09:21.458Z,21.3
2023-04-01T04:14:21.706Z,21.2
2023-04-01T04:19:24.710Z,21.2
2023-04-01T04:24:24.404Z,21.2
2023-04-01T04:29:24.732Z,21.2
2023-04-01T04:34:27.819Z,21.2
2023-04-01T04:39:27.601Z,21.2
2023-04-01T04:44:27.998Z,21.2
2023-04-01T04:49:28.221Z,21.2
2023-04-01T04:54:28.600Z,21.2
2023-04-01T04:59:31.712Z,21.2
2023-04-01T05:04:34.209Z,21.2
2023-04-01T05:09:37.021Z,21.2
2023-04-01T05:14:36.648Z,21.2
2023-04-01T05:19:37.119Z,21.2
2023-04-01T05:24:40.516Z,21.2
2023-04-01T05:29:40.272Z,21.2
2023-04-01T05:34:43.251Z,21.3
2023-04-01T05:39:43.116Z,21.3
2023-04-01T05:44:42.770Z,21.4
2023-04-01T05:49:43.053Z,21.4
2023-04-01T05:54:43.482Z,21.4
2023-04-01T05:59:43.603Z,21.5
2023-04-01T06:04:44.015Z,21.6
2023-04-01T06:09:47.297Z,21.6
2023-04-01T06:14:47.207Z,21.6
2023-04-01T06:19:47.685Z,21.6
2023-04-01T06:24:46.966Z,21.6
2023-04-01T06:29:47.573Z,21.6
2023-04-01T06:34:50.757Z,21.6
2023-04-01T06:39:50.520Z,21.6
2023-04-01T06:44:53.543Z,21.6
2023-04-01T06:49:56.142Z,21.6
2023-04-01T06:54:56.267Z,21.6
2023-04-01T06:59:56.330Z,21.5
2023-04-01T07:04:59.644Z,21.6
2023-04-01T07:10:03.293Z,21.5
2023-04-01T07:15:05.663Z,21.6
2023-04-01T07:20:08.319Z,21.5
2023-04-01T07:25:07.952Z,21.6
2023-04-01T07:30:08.274Z,21.6
2023-04-01T07:35:08.550Z,21.5
2023-04-01T07:40:08.738Z,21.6
2023-04-01T07:45:09.295Z,21.6
2023-04-01T07:50:09.564Z,21.6
2023-04-01T07:55:09.891Z,21.6
2023-04-01T08:00:10.190Z,21.6
2023-04-01T08:05:13.427Z,21.6
2023-04-01T08:10:13.204Z,21.6
2023-04-01T08:15:13.387Z,21.6
2023-04-01T08:20:13.668Z,21.6
2023-04-01T08:25:16.767Z,21.5
2023-04-01T08:30:19.661Z,21.6
2023-04-01T08:35:22.207Z,21.6
2023-04-01T08:40:24.752Z,21.5
2023-04-01T08:45:24.742Z,21.6
2023-04-01T08:50:25.077Z,21.6
2023-04-01T08:55:25.465Z,21.6
2023-04-01T09:00:28.738Z,21.6
2023-04-01T09:05:28.759Z,21.6
2023-04-01T09:10:31.831Z,21.6
2023-04-01T09:15:32.138Z,21.6
2023-04-01T09:20:32.187Z,21.6
2023-04-01T09:25:35.732Z,21.6
2023-04-01T09:30:35.323Z,21.6
2023-04-01T09:35:38.578Z,21.6
2023-04-01T09:40:41.201Z,21.6
2023-04-01T09:45:43.861Z,21.6
2023-04-01T09:50:46.280Z,21.7
2023-04-01T09:55:46.292Z,21.7
2023-04-01T10:00:46.529Z,21.7
2023-04-01T10:05:49.633Z,21.7
2023-04-01T10:10:52.336Z,21.7
2023-04-01T10:15:54.957Z,21.7
2023-04-01T10:20:54.700Z,21.7
2023-04-01T10:25:55.207Z,21.7
2023-04-01T10:30:58.274Z,21.7
2023-04-01T10:36:00.903Z,21.7
2023-04-01T10:41:03.516Z,21.7
2023-04-01T10:46:03.242Z,21.6
2023-04-01T10:51:03.504Z,21.6
2023-04-01T10:56:04.877Z,21.7
2023-04-01T11:01:05.061Z,21.7
2023-04-01T11:06:09.245Z,21.6
2023-04-01T11:11:08.960Z,21.7
2023-04-01T11:16:12.056Z,21.7
2023-04-01T11:21:12.027Z,21.7
2023-04-01T11:26:12.341Z,21.7
2023-04-01T11:31:15.171Z,21.7
2023-04-01T11:36:17.971Z,21.7
2023-04-01T11:41:17.737Z,21.8
2023-04-01T11:46:20.889Z,21.7
2023-04-01T11:51:20.741Z,21.7
2023-04-01T11:56:23.995Z,21.8
2023-04-01T12:01:26.492Z,21.8
2023-04-01T12:06:26.470Z,21.8
2023-04-01T12:11:26.897Z,21.7
2023-04-01T12:16:27.430Z,21.7
2023-04-01T12:21:27.689Z,21.7
2023-04-01T12:26:28.181Z,21.7
2023-04-01T12:31:31.399Z,21.7
2023-04-01T12:36:31.353Z,21.7
2023-04-01T12:41:31.701Z,21.7
2023-04-01T12:46:31.944Z,21.7
2023-04-01T12:51:35.112Z,21.7
2023-04-01T12:56:34.767Z,21.7
2023-04-01T13:01:37.999Z,21.7
2023-04-01T13:06:40.874Z,21.7
2023-04-01T13:11:40.981Z,21.7
2023-04-01T13:16:41.394Z,21.7
2023-04-01T13:21:44.321Z,21.7
2023-04-01T13:26:44.212Z,21.7
2023-04-01T13:31:44.601Z,21.8
2023-04-01T13:36:43.836Z,21.8
2023-04-01T13:41:44.591Z,21.8
2023-04-01T13:46:47.752Z,21.8
2023-04-01T13:51:47.413Z,21.9
2023-04-01T13:56:47.717Z,21.9
2023-04-01T14:01:48.131Z,21.9
2023-04-01T14:06:48.560Z,21.9
2023-04-01T14:11:49.000Z,22
2023-04-01T14:16:49.658Z,21.9
2023-04-01T14:21:49.875Z,21.9
2023-04-01T14:26:53.024Z,21.9
2023-04-01T14:31:53.123Z,22
2023-04-01T14:36:53.417Z,22
2023-04-01T14:41:53.696Z,22
2023-04-01T14:46:54.001Z,21.9
2023-04-01T14:51:57.425Z,21.9
2023-04-01T14:57:00.028Z,22
2023-04-01T15:01:59.889Z,22
2023-04-01T15:07:00.336Z,22
2023-04-01T15:12:00.545Z,22
2023-04-01T15:17:00.960Z,22
2023-04-01T15:22:04.118Z,22
2023-04-01T15:27:06.580Z,22
2023-04-01T15:32:09.001Z,22
2023-04-01T15:37:08.962Z,22
2023-04-01T15:42:09.362Z,22
2023-04-01T15:47:12.337Z,22
2023-04-01T15:52:14.978Z,22
2023-04-01T15:57:14.832Z,22
2023-04-01T16:02:14.992Z,22
2023-04-01T16:07:18.170Z,22
2023-04-01T16:12:17.932Z,22
2023-04-01T16:17:20.880Z,22
2023-04-01T16:22:23.638Z,22
2023-04-01T16:27:23.342Z,22
2023-04-01T16:32:26.472Z,22
2023-04-01T16:37:26.553Z,22
2023-04-01T16:42:27.594Z,22
2023-04-01T16:47:28.124Z,22
2023-04-01T16:52:28.229Z,22
2023-04-01T16:57:28.790Z,22
2023-04-01T17:02:28.972Z,21.9
2023-04-01T17:07:29.216Z,22
2023-04-01T17:12:29.507Z,22
2023-04-01T17:17:32.583Z,21.9
2023-04-01T17:22:32.422Z,21.9
2023-04-01T17:27:35.159Z,22
2023-04-01T17:32:33.168Z,21.9
2023-04-01T17:37:33.492Z,21.9
2023-04-01T17:42:32.605Z,21.9
2023-04-01T17:47:33.268Z,21.9
2023-04-01T17:52:33.510Z,21.9
2023-04-01T17:57:33.927Z,21.9
2023-04-01T18:02:34.367Z,21.8
2023-04-01T18:07:34.878Z,21.8
2023-04-01T18:12:35.129Z,21.7
2023-04-01T18:17:35.468Z,21.7
2023-04-01T18:22:38.711Z,21.7
2023-04-01T18:27:38.714Z,21.7
2023-04-01T18:32:41.747Z,21.6
2023-04-01T18:37:41.757Z,21.6
2023-04-01T18:42:44.836Z,21.6
2023-04-01T18:47:44.827Z,21.5
2023-04-01T18:52:45.190Z,21.5
2023-04-01T18:57:45.440Z,21.5
2023-04-01T19:02:48.319Z,21.5
2023-04-01T19:07:47.945Z,21.5
2023-04-01T19:12:48.409Z,21.5
2023-04-01T19:17:48.591Z,21.5
2023-04-01T19:22:48.930Z,21.5
2023-04-01T19:27:49.314Z,21.4
2023-04-01T19:32:49.770Z,21.4
2023-04-01T19:37:53.042Z,21.4
2023-04-01T19:42:52.672Z,21.4
2023-04-01T19:47:52.934Z,21.4
2023-04-01T19:52:54.790Z,21.4
2023-04-01T19:57:54.930Z,21.4
2023-04-01T20:02:58.021Z,21.4
2023-04-01T20:07:57.778Z,21.4
2023-04-01T20:13:00.993Z,21.4
2023-04-01T20:18:00.937Z,21.3
2023-04-01T20:23:01.375Z,21.3
2023-04-01T20:28:01.794Z,21.3
2023-04-01T20:33:02.318Z,21.3
2023-04-01T20:38:03.410Z,21.3
2023-04-01T20:43:03.468Z,21.3
2023-04-01T20:48:06.637Z,21.3
2023-04-01T20:53:06.196Z,21.3
2023-04-01T20:58:06.494Z,21.3
2023-04-01T21:03:06.932Z,21.3
2023-04-01T21:08:07.289Z,21.2
2023-04-01T21:13:10.449Z,21.2
2023-04-01T21:18:10.278Z,21.2
2023-04-01T21:23:10.314Z,21.2
2023-04-01T21:28:10.815Z,21.2
2023-04-01T21:33:11.261Z,21.2
2023-04-01T21:38:14.152Z,21.2
2023-04-01T21:43:13.874Z,21.2
2023-04-01T21:48:16.756Z,21.2
2023-04-01T21:53:16.709Z,21.2
2023-04-01T21:58:17.104Z,21.1
2023-04-01T22:03:26.554Z,21.2
2023-04-01T22:08:18.041Z,21.1
2023-04-01T22:13:18.790Z,21.1
2023-04-01T22:18:19.083Z,21.1
2023-04-01T22:23:19.417Z,21.1
2023-04-01T22:28:22.720Z,21.1
2023-04-01T22:33:22.597Z,21.1
2023-04-01T22:38:22.769Z,21.1
2023-04-01T22:43:23.031Z,21.1
2023-04-01T22:48:23.269Z,21.1
2023-04-01T22:53:23.763Z,21
2023-04-01T22:58:24.149Z,21.1
2023-04-01T23:03:24.650Z,21
2023-04-01T23:08:27.850Z,21
2023-04-01T23:13:27.789Z,21
2023-04-01T23:18:28.232Z,21
2023-04-01T23:23:31.454Z,21
2023-04-01T23:28:31.137Z,21
2023-04-01T23:33:34.209Z,21
2023-04-01T23:38:36.782Z,21
2023-04-01T23:43:39.509Z,21
2023-04-01T23:48:39.498Z,21
2023-04-01T23:53:39.756Z,21
2023-04-01T23:58:40.043Z,21
